createdAt,value
2023-01-31T18:58:05.945Z,17.70
2023-01-31T19:00:33.320Z,18.90
2023-01-31T19:03:00.887Z,18.10
2023-01-31T19:05:28.056Z,19.00
2023-01-31T19:07:55.491Z,21.10
2023-01-31T19:10:22.768Z,21.50
2023-01-31T19:12:50.881Z,22.60
2023-01-31T19:15:17.929Z,23.40
2023-01-31T19:17:45.038Z,25.80
2023-01-31T19:20:12.509Z,25.00
2023-01-31T19:22:39.644Z,24.90
2023-01-31T19:25:08.836Z,26.00
2023-01-31T19:27:35.997Z,34.20
2023-01-31T19:30:03.980Z,36.70
2023-01-31T19:32:33.139Z,34.00
2023-01-31T19:35:00.489Z,38.40
2023-01-31T19:37:28.254Z,39.70
2023-01-31T19:39:55.507Z,40.60
2023-01-31T19:42:23.374Z,39.30
2023-01-31T19:44:50.849Z,43.20
2023-01-31T19:47:17.980Z,40.80
2023-01-31T19:49:48.203Z,43.30
2023-01-31T19:52:15.558Z,41.20
2023-01-31T19:54:43.496Z,47.30
2023-01-31T19:57:12.213Z,41.10
2023-01-31T19:59:40.674Z,35.80
2023-01-31T20:02:09.529Z,37.80
2023-01-31T20:04:38.372Z,40.30
2023-01-31T20:07:05.830Z,41.30
2023-01-31T20:09:33.287Z,40.30
2023-01-31T20:12:00.438Z,40.20
2023-01-31T20:14:29.022Z,38.10
2023-01-31T20:16:56.028Z,39.90
2023-01-31T20:19:23.424Z,38.80
2023-01-31T20:21:51.195Z,39.60
2023-01-31T20:24:18.386Z,37.80
2023-01-31T20:26:45.661Z,40.20
2023-01-31T20:29:12.741Z,39.10
2023-01-31T20:31:40.046Z,40.90
2023-01-31T20:34:08.168Z,39.10
2023-01-31T20:36:35.255Z,38.80
2023-01-31T20:39:02.777Z,40.20
2023-01-31T20:41:30.038Z,41.00
2023-01-31T20:43:57.590Z,38.50
2023-01-31T20:46:24.857Z,38.30
2023-01-31T20:48:52.529Z,38.50
2023-01-31T20:51:19.961Z,36.40
2023-01-31T20:53:47.442Z,38.70
2023-01-31T20:56:14.707Z,35.50
2023-01-31T20:58:43.033Z,35.00
2023-01-31T21:01:10.751Z,42.40
2023-01-31T21:03:38.083Z,37.40
2023-01-31T21:06:05.835Z,38.30
2023-01-31T21:08:37.568Z,36.60
2023-01-31T21:11:06.730Z,40.30
2023-01-31T21:13:34.345Z,38.30
2023-01-31T21:16:03.044Z,39.00
2023-01-31T21:18:32.450Z,40.80
2023-01-31T21:21:09.226Z,38.90
2023-01-31T21:23:37.177Z,40.10
2023-01-31T21:26:05.692Z,43.30
2023-01-31T21:28:32.741Z,41.70
2023-01-31T21:31:00.993Z,44.10
2023-01-31T21:33:28.788Z,58.10
2023-01-31T21:35:57.846Z,58.90
2023-01-31T21:38:24.933Z,48.10
2023-01-31T21:41:14.899Z,46.50
2023-01-31T21:43:42.698Z,48.10
2023-01-31T21:46:14.517Z,49.60
2023-01-31T21:51:10.442Z,39.30
2023-01-31T21:53:37.506Z,44.60
2023-01-31T21:56:15.953Z,42.40
2023-01-31T21:58:43.928Z,41.70
2023-01-31T22:04:20.396Z,40.50
2023-01-31T22:06:50.526Z,42.60
2023-01-31T22:09:17.948Z,42.30
2023-01-31T22:11:47.027Z,40.90
2023-01-31T22:14:15.062Z,43.30
2023-01-31T22:16:42.599Z,48.80
2023-01-31T22:19:11.559Z,46.80
2023-01-31T22:21:39.831Z,52.10
2023-01-31T22:24:07.919Z,43.90
2023-01-31T22:26:37.250Z,50.70
2023-01-31T22:29:05.886Z,53.00
2023-01-31T22:31:34.655Z,45.40
2023-01-31T22:34:04.013Z,50.20
2023-01-31T22:36:32.154Z,45.10
2023-01-31T22:38:59.307Z,46.00
2023-01-31T22:41:26.753Z,39.40
2023-01-31T22:43:55.658Z,41.20
2023-01-31T22:46:24.661Z,43.70
2023-01-31T22:48:52.297Z,41.70
2023-01-31T22:51:24.277Z,43.40
2023-01-31T22:53:54.311Z,42.40
2023-01-31T22:56:29.230Z,42.20
2023-01-31T22:59:03.014Z,41.20
2023-01-31T23:01:34.137Z,44.00
2023-01-31T23:04:02.321Z,36.90
2023-01-31T23:06:29.557Z,38.50
2023-01-31T23:08:56.952Z,37.70
2023-01-31T23:11:24.170Z,35.80
2023-01-31T23:13:51.651Z,39.20
2023-01-31T23:16:21.365Z,39.00
2023-01-31T23:18:48.408Z,35.10
2023-01-31T23:21:17.618Z,30.90
2023-01-31T23:23:45.181Z,29.90
2023-01-31T23:26:12.837Z,29.50
2023-01-31T23:28:40.927Z,30.00
2023-01-31T23:31:08.169Z,29.70
2023-01-31T23:33:35.416Z,27.10
2023-01-31T23:36:03.481Z,24.80
2023-01-31T23:38:30.842Z,29.40
2023-01-31T23:40:57.778Z,34.30
2023-01-31T23:43:25.042Z,35.30
2023-01-31T23:45:52.684Z,36.00
2023-01-31T23:48:20.052Z,34.80
2023-01-31T23:50:47.229Z,34.80
2023-01-31T23:53:15.729Z,34.30
2023-01-31T23:55:42.878Z,30.20
2023-01-31T23:58:10.038Z,32.30
